Time,TemperatureF,DewpointF,PressureIn,WindDirection,WindDirectionDegrees,WindSpeedMPH,WindSpeedGustMPH,Humidity,HourlyPrecipIn,Conditions,Clouds,dailyrainin,SoftwareType,DateUTC
2013-02-28 00:04:00,-39.2,-40.7,29.64,WSW,248,0.9,0.9,92,0.00,,,0.00,WUHU216HW,2013-02-28 05:04:00,
2013-02-28 00:05:00,-39.2,-40.7,29.64,WSW,248,0.9,0.9,92,0.00,,,0.00,WUHU216HW,2013-02-28 05:05:00,
2013-02-28 00:10:00,-39.2,-43.2,29.64,WSW,248,0.9,0.9,79,0.00,,,0.00,WUHU216HW,2013-02-28 05:10:00,
2013-02-28 00:15:00,-39.2,-43.2,29.64,WSW,248,0.9,0.9,79,0.00,,,0.00,WUHU216HW,2013-02-28 05:15:00,
2013-02-28 01:22:00,-32.2,-33.6,29.62,WNW,293,0.0,0.0,93,0.00,,,0.00,WUHU216HW,2013-02-28 06:22:00,
2013-02-28 01:27:00,-39.2,-40.7,29.61,WNW,293,0.0,0.0,92,0.00,,,0.00,WUHU216HW,2013-02-28 06:27:00,
2013-02-28 01:32:00,-39.2,-45.2,29.61,West,270,0.0,0.0,70,0.00,,,0.00,WUHU216HW,2013-02-28 06:32:00,
2013-02-28 01:37:00,-39.2,-45.9,29.61,West,270,0.0,0.0,67,0.00,,,0.00,WUHU216HW,2013-02-28 06:37:00,
2013-02-28 01:42:00,-39.2,-45.9,29.61,West,270,0.0,0.0,67,0.00,,,0.00,WUHU216HW,2013-02-28 06:42:00,
2013-02-28 02:42:00,-29.2,-30.3,29.59,ESE,113,0.7,0.7,94,0.00,,,0.00,WUHU216HW,2013-02-28 07:42:00,
2013-02-28 02:47:00,-27.7,-28.9,29.58,East,90,0.4,0.7,94,0.00,,,0.00,WUHU216HW,2013-02-28 07:47:00,
2013-02-28 02:52:00,-28.8,-31.4,29.58,East,90,0.4,0.7,87,0.00,,,0.00,WUHU216HW,2013-02-28 07:52:00,
2013-02-28 02:57:00,-28.8,-31.4,29.58,East,90,0.4,0.7,87,0.00,,,0.00,WUHU216HW,2013-02-28 07:57:00,
2013-02-28 03:51:00,-39.2,-40.7,29.57,ENE,68,1.6,1.6,92,0.00,,,0.00,WUHU216HW,2013-02-28 08:51:00,
2013-02-28 03:56:00,-39.2,-40.7,29.57,ENE,68,0.7,1.6,92,0.00,,,0.00,WUHU216HW,2013-02-28 08:56:00,
2013-02-28 04:01:00,-32.0,-33.4,29.57,ENE,68,0.2,0.7,93,0.00,,,0.00,WUHU216HW,2013-02-28 09:01:00,
2013-02-28 04:06:00,-39.2,-40.7,29.57,ENE,68,0.0,0.2,92,0.00,,,0.00,WUHU216HW,2013-02-28 09:06:00,
2013-02-28 04:11:00,-39.2,-40.7,29.57,ENE,68,0.0,0.0,92,0.00,,,0.00,WUHU216HW,2013-02-28 09:11:00,
2013-02-28 05:07:00,-39.2,-40.7,29.57,SW,225,0.4,0.4,92,0.00,,,0.00,WUHU216HW,2013-02-28 10:07:00,
2013-02-28 05:12:00,-39.2,-42.4,29.57,SW,225,0.4,0.7,83,0.00,,,0.00,WUHU216HW,2013-02-28 10:12:00,
2013-02-28 05:17:00,-39.2,-40.7,29.57,SW,225,0.0,0.7,92,0.00,,,0.00,WUHU216HW,2013-02-28 10:17:00,
2013-02-28 05:22:00,-39.2,-40.7,29.57,SW,225,0.0,0.4,92,0.00,,,0.00,WUHU216HW,2013-02-28 10:22:00,
2013-02-28 05:27:00,-39.2,-40.7,29.57,SW,225,0.0,0.0,92,0.00,,,0.00,WUHU216HW,2013-02-28 10:27:00,
2013-02-28 06:24:00,-39.2,-46.4,29.59,SW,225,1.3,1.3,65,0.00,,,0.00,WUHU216HW,2013-02-28 11:24:00,
2013-02-28 06:29:00,-39.2,-46.4,29.59,SW,225,1.8,1.8,65,0.00,,,0.00,WUHU216HW,2013-02-28 11:29:00,
2013-02-28 06:34:00,-39.2,-46.4,29.58,SW,225,2.2,2.2,65,0.00,,,0.00,WUHU216HW,2013-02-28 11:34:00,
2013-02-28 06:39:00,-39.2,-45.5,29.59,SW,225,2.2,2.2,68,0.00,,,0.00,WUHU216HW,2013-02-28 11:39:00,
2013-02-28 06:44:00,-39.2,-45.5,29.59,SW,225,2.2,2.2,68,0.00,,,0.00,WUHU216HW,2013-02-28 11:44:00,
2013-02-28 07:38:00,-39.2,-40.7,29.59,SE,135,1.1,1.1,92,0.00,,,0.00,WUHU216HW,2013-02-28 12:38:00,
2013-02-28 07:43:00,-39.2,-44.0,29.59,SE,135,0.0,1.1,75,0.00,,,0.00,WUHU216HW,2013-02-28 12:43:00,
2013-02-28 07:48:00,-39.2,-40.7,29.59,SE,135,0.0,0.2,92,0.00,,,0.00,WUHU216HW,2013-02-28 12:48:00,
2013-02-28 07:53:00,-39.2,-42.2,29.59,SE,135,0.9,0.9,84,0.00,,,0.00,WUHU216HW,2013-02-28 12:53:00,
2013-02-28 07:58:00,-39.2,-40.7,29.59,ESE,113,0.4,0.9,92,0.00,,,0.00,WUHU216HW,2013-02-28 12:58:00,
2013-02-28 08:03:00,-39.2,-40.7,29.59,ESE,113,0.4,0.4,92,0.00,,,0.00,WUHU216HW,2013-02-28 13:03:00,
2013-02-28 08:58:00,-39.2,-40.7,29.60,South,180,0.4,0.4,92,0.00,,,0.00,WUHU216HW,2013-02-28 13:58:00,
2013-02-28 09:03:00,-39.2,-40.7,29.59,SE,135,3.4,3.4,92,0.00,,,0.00,WUHU216HW,2013-02-28 14:03:00,
2013-02-28 09:08:00,-39.2,-40.7,29.59,SE,135,1.6,3.4,92,0.00,,,0.00,WUHU216HW,2013-02-28 14:08:00,
2013-02-28 09:13:00,-39.2,-40.7,29.59,SE,135,3.4,3.4,92,0.00,,,0.00,WUHU216HW,2013-02-28 14:13:00,
2013-02-28 09:18:00,-39.2,-40.7,29.59,SE,135,3.4,3.4,92,0.00,,,0.00,WUHU216HW,2013-02-28 14:18:00,
2013-02-28 10:20:00,56.7,56.4,29.59,SE,135,3.4,3.4,99,0.00,,,0.00,WUHU216HW,2013-02-28 15:20:00,
2013-02-28 10:25:00,56.7,56.4,29.59,ESE,113,0.7,3.8,99,0.00,,,0.00,WUHU216HW,2013-02-28 15:25:00,
2013-02-28 10:30:00,56.7,56.4,29.59,ESE,113,0.7,3.8,99,0.00,,,0.00,WUHU216HW,2013-02-28 15:30:00,
2013-02-28 10:46:00,67.7,67.4,29.59,ESE,113,0.9,0.9,99,0.00,,,0.00,WUHU216HW,2013-02-28 15:46:00,
2013-02-28 10:51:00,63.4,63.1,29.59,SSE,158,2.5,2.5,99,0.00,,,0.00,WUHU216HW,2013-02-28 15:51:00,
2013-02-28 10:55:00,59.0,58.8,29.58,SE,135,5.1,5.1,99,0.00,,,0.00,WUHU216HW,2013-02-28 15:55:00,
2013-02-28 11:00:00,55.8,55.5,29.58,SSW,203,4.0,5.1,99,0.00,,,0.00,WUHU216HW,2013-02-28 16:00:00,
2013-02-28 11:05:00,53.6,53.4,29.58,SE,135,3.1,4.7,99,0.00,,,0.00,WUHU216HW,2013-02-28 16:05:00,
2013-02-28 11:10:00,52.0,51.8,29.58,East,90,1.8,4.7,99,0.00,,,0.00,WUHU216HW,2013-02-28 16:10:00,
2013-02-28 11:15:00,50.8,50.5,29.58,SSE,158,3.1,3.8,99,0.00,,,0.00,WUHU216HW,2013-02-28 16:15:00,
2013-02-28 11:20:00,50.0,49.8,29.58,SSE,158,3.1,3.8,99,0.00,,,0.00,WUHU216HW,2013-02-28 16:20:00,
2013-02-28 11:25:00,49.5,49.2,29.58,SSE,158,4.7,4.7,99,0.00,,,0.00,WUHU216HW,2013-02-28 16:25:00,
2013-02-28 11:30:00,49.8,49.5,29.58,SE,135,1.1,4.7,99,0.00,,,0.00,WUHU216HW,2013-02-28 16:30:00,
2013-02-28 11:35:00,49.6,49.3,29.59,ESE,113,5.1,5.1,99,0.00,,,0.00,WUHU216HW,2013-02-28 16:35:00,
2013-02-28 11:40:00,49.6,49.3,29.59,ESE,113,5.1,5.1,99,0.00,,,0.00,WUHU216HW,2013-02-28 16:40:00,
2013-02-28 11:45:00,49.6,49.3,29.58,SSE,158,6.7,7.6,99,0.00,,,0.00,WUHU216HW,2013-02-28 16:45:00,
2013-02-28 11:50:00,52.9,52.7,29.58,SE,135,6.3,7.6,99,0.00,,,0.00,WUHU216HW,2013-02-28 16:50:00,
2013-02-28 11:55:00,50.2,50.0,29.58,SE,135,4.7,6.7,99,0.00,,,0.00,WUHU216HW,2013-02-28 16:55:00,
2013-02-28 12:00:00,49.0,48.7,29.58,SE,135,3.4,6.3,99,0.00,,,0.00,WUHU216HW,2013-02-28 17:00:00,
2013-02-28 12:05:00,48.4,48.2,29.58,SE,135,4.5,6.7,99,0.00,,,0.00,WUHU216HW,2013-02-28 17:05:00,
2013-02-28 12:10:00,48.2,48.0,29.58,ESE,113,2.0,6.7,99,0.00,,,0.00,WUHU216HW,2013-02-28 17:10:00,
2013-02-28 12:15:00,48.2,48.0,29.57,SSE,158,1.6,4.3,99,0.00,,,0.00,WUHU216HW,2013-02-28 17:15:00,
2013-02-28 12:20:00,48.1,47.8,29.57,ESE,113,2.2,4.3,99,0.00,,,0.00,WUHU216HW,2013-02-28 17:20:00,
2013-02-28 12:25:00,48.1,47.8,29.57,SE,135,2.9,4.3,99,0.00,,,0.00,WUHU216HW,2013-02-28 17:25:00,
2013-02-28 12:30:00,47.9,47.6,29.57,WSW,248,1.1,4.0,99,0.00,,,0.00,WUHU216HW,2013-02-28 17:30:00,
2013-02-28 12:35:00,47.5,43.2,29.57,WSW,248,2.9,4.0,85,0.00,,,0.00,WUHU216HW,2013-02-28 17:35:00,
2013-02-28 12:40:00,46.4,44.8,29.56,SSW,203,1.3,2.9,94,0.00,,,0.00,WUHU216HW,2013-02-28 17:40:00,
2013-02-28 12:45:00,47.1,46.8,29.57,SW,225,1.8,1.8,99,0.00,,,0.00,WUHU216HW,2013-02-28 17:45:00,
2013-02-28 12:50:00,47.1,46.8,29.57,SW,225,1.8,1.8,99,0.00,,,0.00,WUHU216HW,2013-02-28 17:50:00,
2013-02-28 12:58:00,76.1,75.9,29.56,SW,225,1.3,1.3,99,0.00,,,0.00,WUHU216HW,2013-02-28 17:58:00,
2013-02-28 13:03:00,76.1,75.8,29.56,SSE,158,3.4,3.4,99,0.00,,,0.00,WUHU216HW,2013-02-28 18:03:00,
2013-02-28 13:08:00,76.1,72.3,29.56,WSW,248,2.9,3.4,88,0.00,,,0.00,WUHU216HW,2013-02-28 18:08:00,
2013-02-28 13:13:00,48.2,47.2,29.56,West,270,0.4,2.9,96,0.00,,,0.00,WUHU216HW,2013-02-28 18:13:00,
2013-02-28 13:18:00,47.7,46.1,29.56,West,270,0.9,1.8,94,0.00,,,0.00,WUHU216HW,2013-02-28 18:18:00,
2013-02-28 13:23:00,47.2,45.5,29.56,NW,315,1.1,1.8,94,0.00,,,0.00,WUHU216HW,2013-02-28 18:23:00,
2013-02-28 13:28:00,46.4,44.6,29.56,West,270,0.4,1.8,93,0.00,,,0.00,WUHU216HW,2013-02-28 18:28:00,
2013-02-28 13:33:00,46.1,44.5,29.56,WNW,293,2.2,2.2,94,0.00,,,0.00,WUHU216HW,2013-02-28 18:33:00,
2013-02-28 13:38:00,45.7,44.1,29.56,WNW,293,2.2,2.5,94,0.00,,,0.00,WUHU216HW,2013-02-28 18:38:00,
2013-02-28 13:43:00,45.7,44.9,29.56,WNW,293,0.9,2.7,97,0.00,,,0.00,WUHU216HW,2013-02-28 18:43:00,
2013-02-28 13:48:00,45.7,45.2,29.56,West,270,1.6,2.7,98,0.00,,,0.00,WUHU216HW,2013-02-28 18:48:00,
2013-02-28 13:53:00,46.1,44.7,29.56,WNW,293,1.1,1.8,95,0.00,,,0.00,WUHU216HW,2013-02-28 18:53:00,
2013-02-28 13:58:00,45.9,45.6,29.56,NW,315,2.5,2.5,99,0.00,,,0.00,WUHU216HW,2013-02-28 18:58:00,
2013-02-28 14:03:00,45.9,45.6,29.56,NW,315,2.5,2.5,99,0.00,,,0.00,WUHU216HW,2013-02-28 19:03:00,
2013-02-28 14:08:00,45.8,45.5,29.56,NW,315,2.0,2.0,99,0.00,,,0.00,WUHU216HW,2013-02-28 19:08:00,
2013-02-28 14:13:00,45.8,44.4,29.56,NNW,338,0.0,2.0,95,0.00,,,0.00,WUHU216HW,2013-02-28 19:13:00,
2013-02-28 14:18:00,45.8,45.5,29.56,NNW,338,0.0,0.4,99,0.00,,,0.00,WUHU216HW,2013-02-28 19:18:00,
2013-02-28 14:23:00,51.5,51.2,29.56,NW,315,0.7,0.7,99,0.00,,,0.00,WUHU216HW,2013-02-28 19:23:00,
2013-02-28 14:28:00,49.3,49.1,29.56,WNW,293,1.1,1.6,99,0.00,,,0.00,WUHU216HW,2013-02-28 19:28:00,
2013-02-28 14:33:00,48.2,48.0,29.56,WNW,293,1.1,1.8,99,0.00,,,0.00,WUHU216HW,2013-02-28 19:33:00,
2013-02-28 14:38:00,47.9,47.6,29.56,NW,315,2.5,2.5,99,0.00,,,0.00,WUHU216HW,2013-02-28 19:38:00,
2013-02-28 14:43:00,47.3,47.1,29.56,NW,315,2.5,3.1,99,0.00,,,0.00,WUHU216HW,2013-02-28 19:43:00,
2013-02-28 14:48:00,47.2,46.9,29.56,NW,315,2.5,3.1,99,0.00,,,0.00,WUHU216HW,2013-02-28 19:48:00,
2013-02-28 14:53:00,47.2,46.9,29.56,WNW,293,2.5,3.4,99,0.00,,,0.00,WUHU216HW,2013-02-28 19:53:00,
2013-02-28 14:58:00,47.2,46.9,29.56,WSW,248,2.9,3.4,99,0.00,,,0.00,WUHU216HW,2013-02-28 19:58:00,
2013-02-28 15:03:00,47.2,46.9,29.56,NW,315,2.9,3.4,99,0.00,,,0.00,WUHU216HW,2013-02-28 20:03:00,
2013-02-28 15:08:00,47.3,47.1,29.56,West,270,2.7,3.4,99,0.00,,,0.00,WUHU216HW,2013-02-28 20:08:00,
2013-02-28 15:13:00,47.3,47.1,29.56,WNW,293,1.8,2.7,99,0.00,,,0.00,WUHU216HW,2013-02-28 20:13:00,
2013-02-28 15:18:00,47.3,47.1,29.56,WNW,293,1.8,2.7,99,0.00,,,0.00,WUHU216HW,2013-02-28 20:18:00,
2013-02-28 15:27:00,95.9,95.6,29.56,NW,315,2.9,2.9,99,0.00,,,0.00,WUHU216HW,2013-02-28 20:27:00,
2013-02-28 15:32:00,95.9,95.6,29.56,NW,315,2.9,2.9,99,0.00,,,0.00,WUHU216HW,2013-02-28 20:32:00,
2013-02-28 15:37:00,85.9,85.5,29.56,NW,315,3.4,3.4,99,0.00,,,0.00,WUHU216HW,2013-02-28 20:37:00,
2013-02-28 15:42:00,72.2,71.9,29.56,NW,315,1.6,3.4,99,0.00,,,0.00,WUHU216HW,2013-02-28 20:42:00,
2013-02-28 15:47:00,80.6,80.3,29.56,NW,315,3.4,3.8,99,0.00,,,0.00,WUHU216HW,2013-02-28 20:47:00,
2013-02-28 15:52:00,78.3,78.0,29.56,NNW,338,4.5,4.5,99,0.00,,,0.00,WUHU216HW,2013-02-28 20:52:00,
2013-02-28 15:57:00,61.4,61.1,29.56,NW,315,5.6,5.6,99,0.00,,,0.00,WUHU216HW,2013-02-28 20:57:00,
2013-02-28 16:02:00,60.8,60.6,29.56,NW,315,4.3,5.6,99,0.00,,,0.00,WUHU216HW,2013-02-28 21:02:00,
2013-02-28 16:07:00,60.5,60.2,29.56,NW,315,3.6,5.4,99,0.00,,,0.00,WUHU216HW,2013-02-28 21:07:00,
2013-02-28 16:12:00,61.0,60.8,29.56,NW,315,4.3,4.9,99,0.00,,,0.00,WUHU216HW,2013-02-28 21:12:00,
2013-02-28 16:17:00,61.6,61.3,29.56,NW,315,4.0,4.7,99,0.00,,,0.00,WUHU216HW,2013-02-28 21:17:00,
2013-02-28 16:22:00,62.6,62.4,29.56,NW,315,4.9,4.9,99,0.00,,,0.00,WUHU216HW,2013-02-28 21:22:00,
2013-02-28 16:27:00,63.0,62.7,29.57,NW,315,5.4,6.0,99,0.00,,,0.00,WUHU216HW,2013-02-28 21:27:00,
2013-02-28 16:32:00,62.9,62.6,29.56,NW,315,5.1,6.0,99,0.00,,,0.00,WUHU216HW,2013-02-28 21:32:00,
2013-02-28 16:37:00,63.1,62.2,29.56,NW,315,4.7,5.6,97,0.00,,,0.00,WUHU216HW,2013-02-28 21:37:00,
2013-02-28 16:38:00,63.0,61.8,29.56,WNW,293,5.4,5.4,96,0.00,,,0.00,WUHU216HW,2013-02-28 21:38:00,
2013-02-28 16:42:00,63.0,61.8,29.56,WNW,293,5.4,5.4,96,0.00,,,0.00,WUHU216HW,2013-02-28 21:42:00,
2013-02-28 16:47:00,63.0,61.8,29.56,WNW,293,5.4,5.4,96,0.00,,,0.00,WUHU216HW,2013-02-28 21:47:00,
2013-02-28 17:18:00,95.4,95.0,29.58,NNW,338,1.8,1.8,99,0.00,,,0.00,WUHU216HW,2013-02-28 22:18:00,
2013-02-28 17:23:00,93.2,92.9,29.58,North,0,1.6,1.8,99,0.00,,,0.00,WUHU216HW,2013-02-28 22:23:00,
2013-02-28 17:28:00,92.9,92.5,29.58,NNW,338,1.8,2.7,99,0.00,,,0.00,WUHU216HW,2013-02-28 22:28:00,
2013-02-28 17:33:00,93.8,93.4,29.58,NNW,338,2.7,2.7,99,0.00,,,0.00,WUHU216HW,2013-02-28 22:33:00,
2013-02-28 17:38:00,93.1,92.7,29.58,NNW,338,2.7,2.7,99,0.00,,,0.00,WUHU216HW,2013-02-28 22:38:00,
2013-02-28 17:43:00,94.9,94.5,29.58,NW,315,2.2,3.1,99,0.00,,,0.00,WUHU216HW,2013-02-28 22:43:00,
2013-02-28 17:48:00,93.6,92.3,29.58,NNW,338,0.9,3.8,96,0.00,,,0.00,WUHU216HW,2013-02-28 22:48:00,
2013-02-28 17:53:00,94.0,91.0,29.59,NNW,338,3.6,4.7,91,0.00,,,0.00,WUHU216HW,2013-02-28 22:53:00,
2013-02-28 17:58:00,93.9,93.5,29.59,NW,315,4.0,4.7,99,0.00,,,0.00,WUHU216HW,2013-02-28 22:58:00,
2013-02-28 18:03:00,93.9,92.8,29.59,NW,315,4.0,4.3,97,0.00,,,0.00,WUHU216HW,2013-02-28 23:03:00,
2013-02-28 19:04:00,37.3,37.0,29.61,NW,315,4.0,4.0,99,0.00,,,0.00,WUHU216HW,2013-03-01 00:04:00,
2013-02-28 19:09:00,37.3,37.0,29.60,WNW,293,3.6,4.3,99,0.00,,,0.00,WUHU216HW,2013-03-01 00:09:00,
2013-02-28 19:14:00,37.3,30.2,29.60,NW,315,3.4,4.5,75,0.00,,,0.00,WUHU216HW,2013-03-01 00:14:00,
2013-02-28 19:15:00,38.2,37.9,29.60,NNW,338,4.0,4.0,99,0.00,,,0.00,WUHU216HW,2013-03-01 00:15:00,
2013-02-28 19:19:00,38.2,37.9,29.60,NNW,338,4.0,4.5,99,0.00,,,0.00,WUHU216HW,2013-03-01 00:19:00,
2013-02-28 19:24:00,38.2,37.9,29.60,NNW,338,4.0,4.0,99,0.00,,,0.00,WUHU216HW,2013-03-01 00:24:00,
2013-02-28 20:15:00,-39.2,-40.7,29.60,NW,315,6.3,6.3,92,0.00,,,0.00,WUHU216HW,2013-03-01 01:15:00,
2013-02-28 20:20:00,-39.2,-40.2,29.60,NNW,338,6.3,6.5,94,0.00,,,0.00,WUHU216HW,2013-03-01 01:20:00,
2013-02-28 20:25:00,-39.2,-40.7,29.60,NW,315,8.1,8.1,92,0.00,,,0.00,WUHU216HW,2013-03-01 01:25:00,
2013-02-28 20:30:00,-39.2,-40.7,29.61,NW,315,3.4,8.1,92,0.00,,,0.00,WUHU216HW,2013-03-01 01:30:00,
2013-02-28 20:32:00,-39.2,-39.4,29.61,NNW,338,2.0,2.0,99,0.00,,,0.00,WUHU216HW,2013-03-01 01:32:00,
2013-02-28 20:35:00,-39.2,-39.4,29.61,NNW,338,2.0,8.1,99,0.00,,,0.00,WUHU216HW,2013-03-01 01:35:00,
2013-02-28 20:40:00,-39.2,-39.4,29.61,NNW,338,2.0,4.3,99,0.00,,,0.00,WUHU216HW,2013-03-01 01:40:00,
2013-02-28 21:31:00,-39.2,-40.7,29.62,NW,315,5.8,5.8,92,0.00,,,0.00,WUHU216HW,2013-03-01 02:31:00,
2013-02-28 21:36:00,-39.2,-40.7,29.62,NW,315,5.4,5.8,92,0.00,,,0.00,WUHU216HW,2013-03-01 02:36:00,
2013-02-28 21:41:00,-39.2,-42.4,29.62,NW,315,4.0,5.4,83,0.00,,,0.00,WUHU216HW,2013-03-01 02:41:00,
2013-02-28 21:46:00,-39.2,-42.2,29.62,NW,315,4.0,6.0,84,0.00,,,0.00,WUHU216HW,2013-03-01 02:46:00,
2013-02-28 21:48:00,-39.0,-39.5,29.62,NW,315,2.9,2.9,97,0.00,,,0.00,WUHU216HW,2013-03-01 02:48:00,
2013-02-28 21:51:00,-39.0,-39.5,29.62,NW,315,2.9,6.0,97,0.00,,,0.00,WUHU216HW,2013-03-01 02:51:00,
2013-02-28 21:56:00,-39.0,-39.5,29.62,NW,315,2.9,2.9,97,0.00,,,0.00,WUHU216HW,2013-03-01 02:56:00,
2013-02-28 22:46:00,-39.2,-48.0,29.62,NNW,338,1.6,1.6,59,0.00,,,0.00,WUHU216HW,2013-03-01 03:46:00,
2013-02-28 22:51:00,-39.2,-48.0,29.62,NNW,338,1.1,2.5,59,0.00,,,0.00,WUHU216HW,2013-03-01 03:51:00,
2013-02-28 22:56:00,-39.2,-43.8,29.62,NW,315,0.9,2.5,76,0.00,,,0.00,WUHU216HW,2013-03-01 03:56:00,
2013-02-28 23:01:00,-39.2,-45.4,29.62,NW,315,1.8,2.5,69,0.00,,,0.00,WUHU216HW,2013-03-01 04:01:00,
2013-02-28 23:06:00,-39.2,-43.3,29.62,NNW,338,1.1,4.3,78,0.00,,,0.00,WUHU216HW,2013-03-01 04:06:00,
2013-02-28 23:11:00,-39.2,-43.3,29.62,NNW,338,1.1,4.3,78,0.00,,,0.00,WUHU216HW,2013-03-01 04:11:00,